sensor_id;sensor_type;location;lat;lon;timestamp;temperature;humidity
64987;DHT22;51532;52.108;9.360;2022-07-22T00:02:13;19.70;99.90
64987;DHT22;51532;52.108;9.360;2022-07-22T00:04:58;19.80;99.90
64987;DHT22;51532;52.108;9.360;2022-07-22T00:07:44;19.90;99.90
64987;DHT22;51532;52.108;9.360;2022-07-22T00:10:29;20.00;99.90
64987;DHT22;51532;52.108;9.360;2022-07-22T00:13:15;19.90;99.90
64987;DHT22;51532;52.108;9.360;2022-07-22T00:16:01;19.90;99.90
64987;DHT22;51532;52.108;9.360;2022-07-22T00:18:46;19.90;99.90
64987;DHT22;51532;52.108;9.360;2022-07-22T00:21:32;20.00;99.90
64987;DHT22;51532;52.108;9.360;2022-07-22T00:24:18;20.00;99.90
64987;DHT22;51532;52.108;9.360;2022-07-22T00:27:04;20.00;99.90
64987;DHT22;51532;52.108;9.360;2022-07-22T00:29:50;19.90;99.90
64987;DHT22;51532;52.108;9.360;2022-07-22T00:32:36;20.50;99.90
64987;DHT22;51532;52.108;9.360;2022-07-22T00:35:21;19.90;99.90
64987;DHT22;51532;52.108;9.360;2022-07-22T00:38:07;19.90;99.90
64987;DHT22;51532;52.108;9.360;2022-07-22T00:40:53;19.90;99.90
64987;DHT22;51532;52.108;9.360;2022-07-22T00:43:58;19.80;99.90
64987;DHT22;51532;52.108;9.360;2022-07-22T00:46:44;19.80;99.90
64987;DHT22;51532;52.108;9.360;2022-07-22T00:49:30;19.90;99.90
64987;DHT22;51532;52.108;9.360;2022-07-22T00:52:15;19.90;99.90
64987;DHT22;51532;52.108;9.360;2022-07-22T00:55:04;19.90;99.90
64987;DHT22;51532;52.108;9.360;2022-07-22T00:57:50;19.80;99.90
64987;DHT22;51532;52.108;9.360;2022-07-22T01:00:35;19.80;99.90
64987;DHT22;51532;52.108;9.360;2022-07-22T01:03:20;19.80;99.90
64987;DHT22;51532;52.108;9.360;2022-07-22T01:06:06;19.80;99.90
64987;DHT22;51532;52.108;9.360;2022-07-22T01:08:51;19.80;99.90
64987;DHT22;51532;52.108;9.360;2022-07-22T01:11:37;19.80;99.90
64987;DHT22;51532;52.108;9.360;2022-07-22T01:14:23;19.60;99.90
64987;DHT22;51532;52.108;9.360;2022-07-22T01:17:08;19.50;99.90
64987;DHT22;51532;52.108;9.360;2022-07-22T01:19:58;19.50;99.90
64987;DHT22;51532;52.108;9.360;2022-07-22T01:22:44;19.50;99.90
64987;DHT22;51532;52.108;9.360;2022-07-22T01:25:30;19.50;99.90
64987;DHT22;51532;52.108;9.360;2022-07-22T01:28:15;19.50;99.90
64987;DHT22;51532;52.108;9.360;2022-07-22T01:31:01;19.50;99.90
64987;DHT22;51532;52.108;9.360;2022-07-22T01:33:47;19.50;99.90
64987;DHT22;51532;52.108;9.360;2022-07-22T01:36:33;19.70;99.90
64987;DHT22;51532;52.108;9.360;2022-07-22T01:39:18;19.70;99.90
64987;DHT22;51532;52.108;9.360;2022-07-22T01:42:04;19.70;99.90
64987;DHT22;51532;52.108;9.360;2022-07-22T01:44:49;19.60;99.90
64987;DHT22;51532;52.108;9.360;2022-07-22T01:47:35;17.90;99.90
64987;DHT22;51532;52.108;9.360;2022-07-22T01:50:20;19.30;99.90
64987;DHT22;51532;52.108;9.360;2022-07-22T01:53:06;19.40;99.90
64987;DHT22;51532;52.108;9.360;2022-07-22T01:55:52;19.10;99.90
64987;DHT22;51532;52.108;9.360;2022-07-22T01:58:38;18.90;99.90
64987;DHT22;51532;52.108;9.360;2022-07-22T02:01:26;18.80;99.90
64987;DHT22;51532;52.108;9.360;2022-07-22T02:04:11;19.20;99.90
64987;DHT22;51532;52.108;9.360;2022-07-22T02:06:57;18.80;99.90
64987;DHT22;51532;52.108;9.360;2022-07-22T02:09:42;18.80;99.90
64987;DHT22;51532;52.108;9.360;2022-07-22T02:12:28;18.80;99.90
64987;DHT22;51532;52.108;9.360;2022-07-22T02:15:14;18.80;99.90
64987;DHT22;51532;52.108;9.360;2022-07-22T02:18:00;18.70;99.90
64987;DHT22;51532;52.108;9.360;2022-07-22T02:20:46;20.80;99.90
64987;DHT22;51532;52.108;9.360;2022-07-22T02:23:32;18.70;99.90
64987;DHT22;51532;52.108;9.360;2022-07-22T02:26:18;18.60;99.90
64987;DHT22;51532;52.108;9.360;2022-07-22T02:29:05;19.80;99.90
64987;DHT22;51532;52.108;9.360;2022-07-22T02:31:50;18.90;99.90
64987;DHT22;51532;52.108;9.360;2022-07-22T02:34:39;18.50;99.90
64987;DHT22;51532;52.108;9.360;2022-07-22T02:37:25;18.40;99.90
64987;DHT22;51532;52.108;9.360;2022-07-22T02:40:11;20.00;99.90
64987;DHT22;51532;52.108;9.360;2022-07-22T02:42:57;18.30;99.90
64987;DHT22;51532;52.108;9.360;2022-07-22T02:45:42;18.30;99.90
64987;DHT22;51532;52.108;9.360;2022-07-22T02:48:29;18.40;99.90
64987;DHT22;51532;52.108;9.360;2022-07-22T02:51:16;18.30;99.90
64987;DHT22;51532;52.108;9.360;2022-07-22T02:54:03;18.30;99.90
64987;DHT22;51532;52.108;9.360;2022-07-22T02:56:48;19.60;99.90
64987;DHT22;51532;52.108;9.360;2022-07-22T02:59:34;18.20;99.90
64987;DHT22;51532;52.108;9.360;2022-07-22T03:02:20;19.20;99.90
64987;DHT22;51532;52.108;9.360;2022-07-22T03:05:06;19.50;99.90
64987;DHT22;51532;52.108;9.360;2022-07-22T03:07:58;17.90;99.90
64987;DHT22;51532;52.108;9.360;2022-07-22T03:10:44;17.90;99.90
64987;DHT22;51532;52.108;9.360;2022-07-22T03:13:31;17.90;99.90
64987;DHT22;51532;52.108;9.360;2022-07-22T03:16:17;18.90;99.90
64987;DHT22;51532;52.108;9.360;2022-07-22T03:19:04;17.90;99.90
64987;DHT22;51532;52.108;9.360;2022-07-22T03:21:50;18.40;99.90
64987;DHT22;51532;52.108;9.360;2022-07-22T03:24:36;18.40;99.90
64987;DHT22;51532;52.108;9.360;2022-07-22T03:27:22;19.10;99.90
64987;DHT22;51532;52.108;9.360;2022-07-22T03:30:09;18.00;99.90
64987;DHT22;51532;52.108;9.360;2022-07-22T03:32:57;18.00;99.90
64987;DHT22;51532;52.108;9.360;2022-07-22T03:35:46;18.70;99.90
64987;DHT22;51532;52.108;9.360;2022-07-22T03:38:34;18.00;99.90
64987;DHT22;51532;52.108;9.360;2022-07-22T03:41:20;17.80;99.90
64987;DHT22;51532;52.108;9.360;2022-07-22T03:44:06;19.70;99.90
64987;DHT22;51532;52.108;9.360;2022-07-22T03:46:53;19.40;99.90
64987;DHT22;51532;52.108;9.360;2022-07-22T03:49:39;18.80;99.90
64987;DHT22;51532;52.108;9.360;2022-07-22T03:52:28;17.80;99.90
64987;DHT22;51532;52.108;9.360;2022-07-22T03:55:17;17.80;99.90
64987;DHT22;51532;52.108;9.360;2022-07-22T03:58:09;16.90;99.90
64987;DHT22;51532;52.108;9.360;2022-07-22T04:00:57;17.80;99.90
64987;DHT22;51532;52.108;9.360;2022-07-22T04:03:43;17.80;99.90
64987;DHT22;51532;52.108;9.360;2022-07-22T04:06:40;17.90;99.90
64987;DHT22;51532;52.108;9.360;2022-07-22T04:09:39;17.90;99.90
64987;DHT22;51532;52.108;9.360;2022-07-22T04:12:25;17.80;99.90
64987;DHT22;51532;52.108;9.360;2022-07-22T04:15:28;17.80;99.90
64987;DHT22;51532;52.108;9.360;2022-07-22T04:18:14;19.90;99.90
64987;DHT22;51532;52.108;9.360;2022-07-22T04:21:04;18.80;99.90
64987;DHT22;51532;52.108;9.360;2022-07-22T04:23:53;17.80;99.90
64987;DHT22;51532;52.108;9.360;2022-07-22T04:26:47;17.60;99.90
64987;DHT22;51532;52.108;9.360;2022-07-22T04:29:34;17.50;99.90
64987;DHT22;51532;52.108;9.360;2022-07-22T04:32:19;17.40;99.90
64987;DHT22;51532;52.108;9.360;2022-07-22T04:35:05;17.30;99.90
64987;DHT22;51532;52.108;9.360;2022-07-22T04:37:51;17.20;99.90
64987;DHT22;51532;52.108;9.360;2022-07-22T04:40:39;17.30;99.90
64987;DHT22;51532;52.108;9.360;2022-07-22T04:43:25;17.70;99.90
64987;DHT22;51532;52.108;9.360;2022-07-22T04:46:11;17.50;99.90
64987;DHT22;51532;52.108;9.360;2022-07-22T04:49:00;17.50;99.90
64987;DHT22;51532;52.108;9.360;2022-07-22T04:51:46;17.50;99.90
64987;DHT22;51532;52.108;9.360;2022-07-22T04:54:42;17.50;99.90
64987;DHT22;51532;52.108;9.360;2022-07-22T04:57:28;17.50;99.90
64987;DHT22;51532;52.108;9.360;2022-07-22T05:00:16;17.50;99.90
64987;DHT22;51532;52.108;9.360;2022-07-22T05:03:14;17.50;99.90
64987;DHT22;51532;52.108;9.360;2022-07-22T05:06:01;17.40;99.90
64987;DHT22;51532;52.108;9.360;2022-07-22T05:08:53;17.40;99.90
64987;DHT22;51532;52.108;9.360;2022-07-22T05:11:39;18.80;99.90
64987;DHT22;51532;52.108;9.360;2022-07-22T05:14:25;17.50;99.90
64987;DHT22;51532;52.108;9.360;2022-07-22T05:17:12;17.50;99.90
64987;DHT22;51532;52.108;9.360;2022-07-22T05:20:19;17.60;99.90
64987;DHT22;51532;52.108;9.360;2022-07-22T05:23:05;17.50;99.90
64987;DHT22;51532;52.108;9.360;2022-07-22T05:25:54;18.40;99.90
64987;DHT22;51532;52.108;9.360;2022-07-22T05:28:40;17.60;99.90
64987;DHT22;51532;52.108;9.360;2022-07-22T05:31:29;18.30;99.90
64987;DHT22;51532;52.108;9.360;2022-07-22T05:34:15;17.60;99.90
64987;DHT22;51532;52.108;9.360;2022-07-22T05:37:08;17.40;99.90
64987;DHT22;51532;52.108;9.360;2022-07-22T05:39:58;19.10;99.90
64987;DHT22;51532;52.108;9.360;2022-07-22T05:42:45;17.40;99.90
64987;DHT22;51532;52.108;9.360;2022-07-22T05:45:31;17.20;99.90
64987;DHT22;51532;52.108;9.360;2022-07-22T05:48:17;18.20;99.90
64987;DHT22;51532;52.108;9.360;2022-07-22T05:51:11;17.10;99.90
64987;DHT22;51532;52.108;9.360;2022-07-22T05:53:58;17.10;99.90
64987;DHT22;51532;52.108;9.360;2022-07-22T05:56:44;17.10;99.90
64987;DHT22;51532;52.108;9.360;2022-07-22T05:59:33;17.00;99.90
64987;DHT22;51532;52.108;9.360;2022-07-22T06:02:19;17.00;99.90
64987;DHT22;51532;52.108;9.360;2022-07-22T06:05:07;17.00;99.90
64987;DHT22;51532;52.108;9.360;2022-07-22T06:07:56;17.10;99.90
64987;DHT22;51532;52.108;9.360;2022-07-22T06:10:50;18.50;99.90
64987;DHT22;51532;52.108;9.360;2022-07-22T06:13:41;17.70;99.90
64987;DHT22;51532;52.108;9.360;2022-07-22T06:16:28;17.30;99.90
64987;DHT22;51532;52.108;9.360;2022-07-22T06:19:19;18.30;99.90
64987;DHT22;51532;52.108;9.360;2022-07-22T06:22:05;17.40;99.90
64987;DHT22;51532;52.108;9.360;2022-07-22T06:24:51;17.90;99.90
64987;DHT22;51532;52.108;9.360;2022-07-22T06:27:37;17.60;99.90
64987;DHT22;51532;52.108;9.360;2022-07-22T06:30:27;17.90;99.90
64987;DHT22;51532;52.108;9.360;2022-07-22T06:33:14;17.70;99.90
64987;DHT22;51532;52.108;9.360;2022-07-22T06:36:01;18.00;99.90
64987;DHT22;51532;52.108;9.360;2022-07-22T06:38:50;17.70;99.90
64987;DHT22;51532;52.108;9.360;2022-07-22T06:41:59;17.80;99.90
64987;DHT22;51532;52.108;9.360;2022-07-22T06:45:06;18.40;99.90
64987;DHT22;51532;52.108;9.360;2022-07-22T06:48:04;17.90;99.90
64987;DHT22;51532;52.108;9.360;2022-07-22T06:50:53;18.00;99.90
64987;DHT22;51532;52.108;9.360;2022-07-22T06:53:43;19.50;99.90
64987;DHT22;51532;52.108;9.360;2022-07-22T06:56:34;18.10;99.90
64987;DHT22;51532;52.108;9.360;2022-07-22T06:59:21;17.50;99.90
64987;DHT22;51532;52.108;9.360;2022-07-22T07:02:07;20.10;99.90
64987;DHT22;51532;52.108;9.360;2022-07-22T07:04:56;17.80;99.90
64987;DHT22;51532;52.108;9.360;2022-07-22T07:07:47;19.30;99.90
64987;DHT22;51532;52.108;9.360;2022-07-22T07:10:34;17.90;99.90
64987;DHT22;51532;52.108;9.360;2022-07-22T07:13:25;18.70;99.90
64987;DHT22;51532;52.108;9.360;2022-07-22T07:16:14;19.20;99.90
64987;DHT22;51532;52.108;9.360;2022-07-22T07:19:00;17.90;99.90
64987;DHT22;51532;52.108;9.360;2022-07-22T07:21:47;18.60;99.90
64987;DHT22;51532;52.108;9.360;2022-07-22T07:24:36;18.20;99.90
64987;DHT22;51532;52.108;9.360;2022-07-22T07:27:23;20.10;99.90
64987;DHT22;51532;52.108;9.360;2022-07-22T07:30:19;18.50;99.90
64987;DHT22;51532;52.108;9.360;2022-07-22T07:33:15;18.60;99.90
64987;DHT22;51532;52.108;9.360;2022-07-22T07:36:04;18.60;99.90
64987;DHT22;51532;52.108;9.360;2022-07-22T07:39:01;18.60;99.90
64987;DHT22;51532;52.108;9.360;2022-07-22T07:41:52;19.90;99.90
64987;DHT22;51532;52.108;9.360;2022-07-22T07:44:41;18.60;99.90
64987;DHT22;51532;52.108;9.360;2022-07-22T07:47:29;20.20;99.90
64987;DHT22;51532;52.108;9.360;2022-07-22T07:50:15;18.60;99.90
64987;DHT22;51532;52.108;9.360;2022-07-22T07:53:01;18.70;99.90
64987;DHT22;51532;52.108;9.360;2022-07-22T07:55:49;18.70;99.90
64987;DHT22;51532;52.108;9.360;2022-07-22T07:58:42;18.20;99.90
64987;DHT22;51532;52.108;9.360;2022-07-22T08:01:49;19.10;99.90
64987;DHT22;51532;52.108;9.360;2022-07-22T08:04:46;21.10;99.90
64987;DHT22;51532;52.108;9.360;2022-07-22T08:07:41;19.60;99.90
64987;DHT22;51532;52.108;9.360;2022-07-22T08:10:30;19.70;99.90
64987;DHT22;51532;52.108;9.360;2022-07-22T08:14:05;21.20;99.90
64987;DHT22;51532;52.108;9.360;2022-07-22T08:17:18;19.40;99.90
64987;DHT22;51532;52.108;9.360;2022-07-22T08:20:05;19.40;99.90
64987;DHT22;51532;52.108;9.360;2022-07-22T08:22:51;19.50;99.90
64987;DHT22;51532;52.108;9.360;2022-07-22T08:25:39;19.70;99.90
64987;DHT22;51532;52.108;9.360;2022-07-22T08:28:24;19.90;99.90
64987;DHT22;51532;52.108;9.360;2022-07-22T08:31:10;20.20;99.90
64987;DHT22;51532;52.108;9.360;2022-07-22T08:33:57;20.30;99.90
64987;DHT22;51532;52.108;9.360;2022-07-22T08:36:45;20.70;99.90
64987;DHT22;51532;52.108;9.360;2022-07-22T08:39:31;20.90;99.90
64987;DHT22;51532;52.108;9.360;2022-07-22T08:42:17;20.90;99.90
64987;DHT22;51532;52.108;9.360;2022-07-22T08:45:03;20.30;99.90
64987;DHT22;51532;52.108;9.360;2022-07-22T08:47:52;19.80;99.90
64987;DHT22;51532;52.108;9.360;2022-07-22T08:51:07;19.40;99.90
64987;DHT22;51532;52.108;9.360;2022-07-22T08:54:03;19.60;99.90
64987;DHT22;51532;52.108;9.360;2022-07-22T08:56:51;19.80;99.90
64987;DHT22;51532;52.108;9.360;2022-07-22T08:59:56;19.90;99.90
64987;DHT22;51532;52.108;9.360;2022-07-22T09:02:42;19.60;99.90
64987;DHT22;51532;52.108;9.360;2022-07-22T09:05:33;19.90;99.90
64987;DHT22;51532;52.108;9.360;2022-07-22T09:09:11;19.90;99.90
64987;DHT22;51532;52.108;9.360;2022-07-22T09:12:16;19.60;99.90
64987;DHT22;51532;52.108;9.360;2022-07-22T09:15:05;19.40;99.90
64987;DHT22;51532;52.108;9.360;2022-07-22T09:18:02;19.30;99.90
64987;DHT22;51532;52.108;9.360;2022-07-22T09:21:11;19.10;99.90
64987;DHT22;51532;52.108;9.360;2022-07-22T09:24:30;19.10;99.90
64987;DHT22;51532;52.108;9.360;2022-07-22T09:27:35;18.00;99.90
64987;DHT22;51532;52.108;9.360;2022-07-22T09:30:49;19.70;99.90
64987;DHT22;51532;52.108;9.360;2022-07-22T09:33:36;19.70;99.90
64987;DHT22;51532;52.108;9.360;2022-07-22T09:36:55;19.30;99.90
64987;DHT22;51532;52.108;9.360;2022-07-22T09:39:43;19.60;99.90
64987;DHT22;51532;52.108;9.360;2022-07-22T09:43:05;19.70;99.90
64987;DHT22;51532;52.108;9.360;2022-07-22T09:45:54;19.80;99.90
64987;DHT22;51532;52.108;9.360;2022-07-22T09:49:02;19.80;99.90
64987;DHT22;51532;52.108;9.360;2022-07-22T09:51:53;19.80;99.90
64987;DHT22;51532;52.108;9.360;2022-07-22T09:54:46;20.20;99.90
64987;DHT22;51532;52.108;9.360;2022-07-22T09:57:31;20.40;99.90
64987;DHT22;51532;52.108;9.360;2022-07-22T10:00:19;20.50;99.90
64987;DHT22;51532;52.108;9.360;2022-07-22T10:03:18;20.20;99.90
64987;DHT22;51532;52.108;9.360;2022-07-22T10:06:05;20.20;99.90
64987;DHT22;51532;52.108;9.360;2022-07-22T10:08:53;20.10;99.90
64987;DHT22;51532;52.108;9.360;2022-07-22T10:11:48;20.30;99.90
64987;DHT22;51532;52.108;9.360;2022-07-22T10:14:37;20.10;99.90
64987;DHT22;51532;52.108;9.360;2022-07-22T10:17:22;20.10;99.90
64987;DHT22;51532;52.108;9.360;2022-07-22T10:20:10;20.30;99.90
64987;DHT22;51532;52.108;9.360;2022-07-22T10:23:01;20.40;99.90
64987;DHT22;51532;52.108;9.360;2022-07-22T10:25:56;20.50;99.90
64987;DHT22;51532;52.108;9.360;2022-07-22T10:28:46;20.40;99.90
64987;DHT22;51532;52.108;9.360;2022-07-22T10:31:31;20.60;99.90
64987;DHT22;51532;52.108;9.360;2022-07-22T10:34:17;20.90;99.90
64987;DHT22;51532;52.108;9.360;2022-07-22T10:37:02;21.30;99.90
64987;DHT22;51532;52.108;9.360;2022-07-22T10:40:19;21.20;99.90
64987;DHT22;51532;52.108;9.360;2022-07-22T10:43:06;21.10;99.90
64987;DHT22;51532;52.108;9.360;2022-07-22T10:45:55;20.90;99.90
64987;DHT22;51532;52.108;9.360;2022-07-22T10:51:27;20.80;99.90
64987;DHT22;51532;52.108;9.360;2022-07-22T10:54:13;21.00;99.90
64987;DHT22;51532;52.108;9.360;2022-07-22T10:57:04;21.50;99.90
64987;DHT22;51532;52.108;9.360;2022-07-22T10:59:54;21.80;99.90
64987;DHT22;51532;52.108;9.360;2022-07-22T11:02:39;22.00;99.90
64987;DHT22;51532;52.108;9.360;2022-07-22T11:05:26;23.10;99.90
64987;DHT22;51532;52.108;9.360;2022-07-22T11:08:12;21.70;99.90
64987;DHT22;51532;52.108;9.360;2022-07-22T11:10:57;22.10;99.90
64987;DHT22;51532;52.108;9.360;2022-07-22T11:13:43;22.00;99.90
64987;DHT22;51532;52.108;9.360;2022-07-22T11:16:30;21.60;99.90
64987;DHT22;51532;52.108;9.360;2022-07-22T11:19:23;21.30;99.90
64987;DHT22;51532;52.108;9.360;2022-07-22T11:22:10;21.10;99.90
64987;DHT22;51532;52.108;9.360;2022-07-22T11:24:56;21.10;99.90
64987;DHT22;51532;52.108;9.360;2022-07-22T11:27:51;20.70;99.90
64987;DHT22;51532;52.108;9.360;2022-07-22T11:30:37;20.60;99.90
64987;DHT22;51532;52.108;9.360;2022-07-22T11:33:22;20.40;99.90
64987;DHT22;51532;52.108;9.360;2022-07-22T11:36:08;19.50;99.90
64987;DHT22;51532;52.108;9.360;2022-07-22T11:38:57;20.20;99.90
64987;DHT22;51532;52.108;9.360;2022-07-22T11:41:42;20.40;99.90
64987;DHT22;51532;52.108;9.360;2022-07-22T11:44:30;20.60;99.90
64987;DHT22;51532;52.108;9.360;2022-07-22T11:47:15;20.70;99.90
64987;DHT22;51532;52.108;9.360;2022-07-22T11:50:01;20.70;99.90
64987;DHT22;51532;52.108;9.360;2022-07-22T11:52:53;21.30;99.90
64987;DHT22;51532;52.108;9.360;2022-07-22T11:55:38;20.90;99.90
64987;DHT22;51532;52.108;9.360;2022-07-22T11:58:41;20.70;99.90
64987;DHT22;51532;52.108;9.360;2022-07-22T12:01:28;20.50;99.90
64987;DHT22;51532;52.108;9.360;2022-07-22T12:04:23;20.20;99.90
64987;DHT22;51532;52.108;9.360;2022-07-22T12:07:12;20.20;99.90
64987;DHT22;51532;52.108;9.360;2022-07-22T12:09:58;20.10;99.90
64987;DHT22;51532;52.108;9.360;2022-07-22T12:12:46;20.00;99.90
64987;DHT22;51532;52.108;9.360;2022-07-22T12:15:32;19.90;99.90
64987;DHT22;51532;52.108;9.360;2022-07-22T12:18:39;20.10;99.90
64987;DHT22;51532;52.108;9.360;2022-07-22T12:21:32;20.20;99.90
64987;DHT22;51532;52.108;9.360;2022-07-22T12:24:31;20.20;99.90
64987;DHT22;51532;52.108;9.360;2022-07-22T12:27:17;20.30;99.90
64987;DHT22;51532;52.108;9.360;2022-07-22T12:30:12;20.30;99.90
64987;DHT22;51532;52.108;9.360;2022-07-22T12:32:58;20.50;99.90
64987;DHT22;51532;52.108;9.360;2022-07-22T12:36:03;20.50;99.90
64987;DHT22;51532;52.108;9.360;2022-07-22T12:38:49;20.60;99.90
64987;DHT22;51532;52.108;9.360;2022-07-22T12:41:51;20.70;99.90
64987;DHT22;51532;52.108;9.360;2022-07-22T12:44:36;20.70;99.90
64987;DHT22;51532;52.108;9.360;2022-07-22T12:50:41;20.60;99.90
64987;DHT22;51532;52.108;9.360;2022-07-22T12:53:26;20.50;99.90
64987;DHT22;51532;52.108;9.360;2022-07-22T12:56:14;20.30;99.90
64987;DHT22;51532;52.108;9.360;2022-07-22T12:59:00;20.30;99.90
64987;DHT22;51532;52.108;9.360;2022-07-22T13:01:46;20.20;99.90
64987;DHT22;51532;52.108;9.360;2022-07-22T13:04:34;20.20;99.90
64987;DHT22;51532;52.108;9.360;2022-07-22T13:07:19;20.20;99.90
64987;DHT22;51532;52.108;9.360;2022-07-22T13:10:06;20.20;99.90
64987;DHT22;51532;52.108;9.360;2022-07-22T13:12:53;20.20;99.90
64987;DHT22;51532;52.108;9.360;2022-07-22T13:15:38;20.20;99.90
64987;DHT22;51532;52.108;9.360;2022-07-22T13:18:24;20.10;99.90
64987;DHT22;51532;52.108;9.360;2022-07-22T13:21:10;20.20;99.90
64987;DHT22;51532;52.108;9.360;2022-07-22T13:23:55;20.20;99.90
64987;DHT22;51532;52.108;9.360;2022-07-22T13:26:41;20.10;99.90
64987;DHT22;51532;52.108;9.360;2022-07-22T13:29:26;20.00;99.90
64987;DHT22;51532;52.108;9.360;2022-07-22T13:32:11;20.10;99.90
64987;DHT22;51532;52.108;9.360;2022-07-22T13:35:17;20.20;99.90
64987;DHT22;51532;52.108;9.360;2022-07-22T13:38:03;20.20;99.90
64987;DHT22;51532;52.108;9.360;2022-07-22T13:40:49;20.10;99.90
64987;DHT22;51532;52.108;9.360;2022-07-22T13:43:37;20.20;99.90
64987;DHT22;51532;52.108;9.360;2022-07-22T13:46:23;20.10;99.90
64987;DHT22;51532;52.108;9.360;2022-07-22T13:49:08;20.00;99.90
64987;DHT22;51532;52.108;9.360;2022-07-22T13:51:53;20.20;99.90
64987;DHT22;51532;52.108;9.360;2022-07-22T13:54:39;20.20;99.90
64987;DHT22;51532;52.108;9.360;2022-07-22T13:57:24;20.20;99.90
64987;DHT22;51532;52.108;9.360;2022-07-22T14:00:10;20.00;99.90
64987;DHT22;51532;52.108;9.360;2022-07-22T14:02:59;20.10;99.90
64987;DHT22;51532;52.108;9.360;2022-07-22T14:05:45;20.20;99.90
64987;DHT22;51532;52.108;9.360;2022-07-22T14:08:31;20.10;99.90
64987;DHT22;51532;52.108;9.360;2022-07-22T14:11:17;20.00;99.90
64987;DHT22;51532;52.108;9.360;2022-07-22T14:14:02;20.00;99.90
64987;DHT22;51532;52.108;9.360;2022-07-22T14:16:48;19.90;99.90
64987;DHT22;51532;52.108;9.360;2022-07-22T14:19:47;19.80;99.90
64987;DHT22;51532;52.108;9.360;2022-07-22T14:22:43;20.90;99.90
64987;DHT22;51532;52.108;9.360;2022-07-22T14:25:29;20.50;99.90
64987;DHT22;51532;52.108;9.360;2022-07-22T14:28:15;21.70;99.90
64987;DHT22;51532;52.108;9.360;2022-07-22T14:31:22;21.80;99.90
64987;DHT22;51532;52.108;9.360;2022-07-22T14:34:13;20.90;99.90
64987;DHT22;51532;52.108;9.360;2022-07-22T14:36:58;20.70;99.90
64987;DHT22;51532;52.108;9.360;2022-07-22T14:39:48;22.70;99.90
64987;DHT22;51532;52.108;9.360;2022-07-22T14:42:44;21.50;99.90
64987;DHT22;51532;52.108;9.360;2022-07-22T14:45:58;22.80;99.90
64987;DHT22;51532;52.108;9.360;2022-07-22T14:48:44;21.80;99.90
64987;DHT22;51532;52.108;9.360;2022-07-22T14:51:33;20.80;99.90
64987;DHT22;51532;52.108;9.360;2022-07-22T14:54:19;20.70;99.90
64987;DHT22;51532;52.108;9.360;2022-07-22T14:57:08;20.50;99.90
64987;DHT22;51532;52.108;9.360;2022-07-22T14:59:54;20.60;99.90
64987;DHT22;51532;52.108;9.360;2022-07-22T15:02:40;21.60;99.90
64987;DHT22;51532;52.108;9.360;2022-07-22T15:05:26;20.30;99.90
64987;DHT22;51532;52.108;9.360;2022-07-22T15:08:13;20.40;99.90
64987;DHT22;51532;52.108;9.360;2022-07-22T15:10:59;20.50;99.90
64987;DHT22;51532;52.108;9.360;2022-07-22T15:13:46;20.50;99.90
64987;DHT22;51532;52.108;9.360;2022-07-22T15:16:32;20.70;99.90
64987;DHT22;51532;52.108;9.360;2022-07-22T15:19:26;21.60;99.90
64987;DHT22;51532;52.108;9.360;2022-07-22T15:22:12;21.40;99.90
64987;DHT22;51532;52.108;9.360;2022-07-22T15:25:00;20.60;99.90
64987;DHT22;51532;52.108;9.360;2022-07-22T15:27:46;21.40;99.90
64987;DHT22;51532;52.108;9.360;2022-07-22T15:30:34;22.30;99.90
64987;DHT22;51532;52.108;9.360;2022-07-22T15:33:20;19.30;99.90
64987;DHT22;51532;52.108;9.360;2022-07-22T15:36:17;20.30;99.90
64987;DHT22;51532;52.108;9.360;2022-07-22T15:39:02;20.30;99.90
64987;DHT22;51532;52.108;9.360;2022-07-22T15:41:48;20.40;99.90
64987;DHT22;51532;52.108;9.360;2022-07-22T15:44:34;20.30;99.90
64987;DHT22;51532;52.108;9.360;2022-07-22T15:47:19;20.30;99.90
64987;DHT22;51532;52.108;9.360;2022-07-22T15:50:06;20.20;99.90
64987;DHT22;51532;52.108;9.360;2022-07-22T15:52:52;20.20;99.90
64987;DHT22;51532;52.108;9.360;2022-07-22T15:55:38;20.30;99.90
64987;DHT22;51532;52.108;9.360;2022-07-22T15:58:24;20.30;99.90
64987;DHT22;51532;52.108;9.360;2022-07-22T16:01:48;20.20;99.90
64987;DHT22;51532;52.108;9.360;2022-07-22T16:04:34;20.20;99.90
64987;DHT22;51532;52.108;9.360;2022-07-22T16:07:20;20.10;99.90
64987;DHT22;51532;52.108;9.360;2022-07-22T16:10:06;20.00;99.90
64987;DHT22;51532;52.108;9.360;2022-07-22T16:12:51;19.80;99.90
64987;DHT22;51532;52.108;9.360;2022-07-22T16:15:37;20.00;99.90
64987;DHT22;51532;52.108;9.360;2022-07-22T16:18:23;19.90;99.90
64987;DHT22;51532;52.108;9.360;2022-07-22T16:21:09;20.00;99.90
64987;DHT22;51532;52.108;9.360;2022-07-22T16:23:54;20.10;99.90
64987;DHT22;51532;52.108;9.360;2022-07-22T16:26:39;20.30;99.90
64987;DHT22;51532;52.108;9.360;2022-07-22T16:29:25;20.60;99.90
64987;DHT22;51532;52.108;9.360;2022-07-22T16:32:10;20.60;99.90
64987;DHT22;51532;52.108;9.360;2022-07-22T16:34:56;20.60;99.90
64987;DHT22;51532;52.108;9.360;2022-07-22T16:37:42;20.30;99.90
64987;DHT22;51532;52.108;9.360;2022-07-22T16:40:28;20.40;99.90
64987;DHT22;51532;52.108;9.360;2022-07-22T16:43:14;20.30;99.90
64987;DHT22;51532;52.108;9.360;2022-07-22T16:46:00;20.50;99.90
64987;DHT22;51532;52.108;9.360;2022-07-22T16:48:46;20.40;99.90
64987;DHT22;51532;52.108;9.360;2022-07-22T16:51:32;20.40;99.90
64987;DHT22;51532;52.108;9.360;2022-07-22T16:54:17;20.50;99.90
64987;DHT22;51532;52.108;9.360;2022-07-22T16:57:03;20.60;99.90
64987;DHT22;51532;52.108;9.360;2022-07-22T16:59:49;20.80;99.90
64987;DHT22;51532;52.108;9.360;2022-07-22T17:02:34;20.80;99.90
64987;DHT22;51532;52.108;9.360;2022-07-22T17:05:20;20.70;99.90
64987;DHT22;51532;52.108;9.360;2022-07-22T17:08:05;20.70;99.90
64987;DHT22;51532;52.108;9.360;2022-07-22T17:10:51;21.00;99.90
64987;DHT22;51532;52.108;9.360;2022-07-22T17:13:36;21.00;99.90
64987;DHT22;51532;52.108;9.360;2022-07-22T17:16:22;20.90;99.90
64987;DHT22;51532;52.108;9.360;2022-07-22T17:19:07;21.00;99.90
64987;DHT22;51532;52.108;9.360;2022-07-22T17:21:53;20.90;99.90
64987;DHT22;51532;52.108;9.360;2022-07-22T17:24:38;20.90;99.90
64987;DHT22;51532;52.108;9.360;2022-07-22T17:27:24;20.90;99.90
64987;DHT22;51532;52.108;9.360;2022-07-22T17:30:11;20.90;99.90
64987;DHT22;51532;52.108;9.360;2022-07-22T17:32:57;20.90;99.90
64987;DHT22;51532;52.108;9.360;2022-07-22T17:35:42;20.90;99.90
64987;DHT22;51532;52.108;9.360;2022-07-22T17:38:28;21.20;99.90
64987;DHT22;51532;52.108;9.360;2022-07-22T17:41:14;20.90;99.90
64987;DHT22;51532;52.108;9.360;2022-07-22T17:43:59;20.90;99.90
64987;DHT22;51532;52.108;9.360;2022-07-22T17:46:45;20.80;99.90
64987;DHT22;51532;52.108;9.360;2022-07-22T17:49:33;20.50;99.90
64987;DHT22;51532;52.108;9.360;2022-07-22T17:52:19;20.50;99.90
64987;DHT22;51532;52.108;9.360;2022-07-22T17:55:04;20.40;99.90